Time;durP1;ratioP1;P1;durP2;ratioP2;P2;SDS_P1;SDS_P2;PMS_P1;PMS_P2;Temp;Humidity;BMP_temperature;BMP_pressure;BME280_temperature;BME280_humidity;BME280_pressure;Samples;Min_cycle;Max_cycle;Signal;HPM_P1;HPM_P2
2023/09/30 00:00:48;;;;;;;13.10;10.10;;;16.30;99.90;;;;;;5108118;28;20215;-76
2023/09/30 00:03:14;;;;;;;12.73;10.50;;;16.30;99.90;;;;;;5108021;28;20213;-77
2023/09/30 00:05:41;;;;;;;12.63;10.63;;;16.20;99.90;;;;;;5088997;28;20681;-76
2023/09/30 00:08:08;;;;;;;13.87;10.30;;;16.10;99.90;;;;;;5093187;28;20201;-76
2023/09/30 00:10:36;;;;;;;14.33;11.53;;;16.10;99.90;;;;;;5111377;28;20204;-76
2023/09/30 00:13:03;;;;;;;14.03;10.47;;;16.00;99.90;;;;;;5091235;28;20611;-76
2023/09/30 00:15:30;;;;;;;14.53;10.80;;;16.00;99.90;;;;;;5084203;28;20211;-76
2023/09/30 00:17:57;;;;;;;15.13;11.10;;;15.90;99.90;;;;;;5107918;28;20259;-76
2023/09/30 00:20:24;;;;;;;12.83;10.57;;;15.90;99.90;;;;;;5102346;28;20691;-76
2023/09/30 00:22:51;;;;;;;14.87;11.30;;;15.80;99.90;;;;;;5112309;28;20220;-76
2023/09/30 00:25:17;;;;;;;13.53;10.63;;;15.80;99.90;;;;;;5097001;28;20224;-76
2023/09/30 00:27:46;;;;;;;13.97;10.60;;;15.70;99.90;;;;;;5094456;28;20200;-76
2023/09/30 00:30:12;;;;;;;16.40;11.47;;;15.70;99.90;;;;;;5090496;28;20210;-76
2023/09/30 00:32:39;;;;;;;16.67;11.13;;;15.70;99.90;;;;;;5091012;28;20220;-76
2023/09/30 00:35:10;;;;;;;12.70;10.43;;;15.70;99.90;;;;;;5090172;28;20325;-76
2023/09/30 00:37:38;;;;;;;16.50;10.70;;;15.70;99.90;;;;;;5090972;28;20221;-76
2023/09/30 00:40:06;;;;;;;12.80;10.63;;;15.70;99.90;;;;;;5092752;28;20292;-76
2023/09/30 00:42:33;;;;;;;14.93;10.53;;;15.80;99.90;;;;;;5094516;28;20236;-76
2023/09/30 00:45:04;;;;;;;14.03;10.67;;;15.70;99.90;;;;;;5095128;28;20564;-76
2023/09/30 00:47:33;;;;;;;13.23;9.97;;;15.80;99.90;;;;;;5086683;28;20249;-76
2023/09/30 00:50:00;;;;;;;11.93;9.90;;;15.80;99.90;;;;;;5109007;28;20220;-76
2023/09/30 00:52:28;;;;;;;11.97;9.53;;;15.80;99.90;;;;;;5108406;28;20212;-76
2023/09/30 00:54:55;;;;;;;12.17;10.00;;;15.80;99.90;;;;;;5089076;28;20205;-76
2023/09/30 00:57:23;;;;;;;10.60;9.23;;;15.80;99.90;;;;;;5093373;28;20629;-76
2023/09/30 00:59:51;;;;;;;10.37;9.13;;;15.80;99.90;;;;;;5110445;28;20230;-77
2023/09/30 01:02:20;;;;;;;13.13;10.47;;;15.70;99.90;;;;;;5096266;28;20229;-76
2023/09/30 01:04:47;;;;;;;12.10;9.70;;;15.60;99.90;;;;;;5094502;28;20203;-75
2023/09/30 01:07:13;;;;;;;12.90;10.10;;;15.60;99.90;;;;;;5081417;28;20799;-76
2023/09/30 01:09:40;;;;;;;11.57;10.10;;;15.60;99.90;;;;;;5090271;28;20197;-76
2023/09/30 01:12:08;;;;;;;10.97;9.87;;;15.50;99.90;;;;;;5089207;28;20250;-76
2023/09/30 01:14:38;;;;;;;12.83;10.00;;;15.50;99.90;;;;;;5093834;28;20225;-76
2023/09/30 01:17:08;;;;;;;13.60;10.03;;;15.50;99.90;;;;;;5092443;28;20677;-76
2023/09/30 01:19:36;;;;;;;12.53;9.77;;;15.40;99.90;;;;;;5112030;28;20223;-76
2023/09/30 01:22:04;;;;;;;12.13;10.30;;;15.40;99.90;;;;;;5095406;28;20251;-76
2023/09/30 01:24:31;;;;;;;11.77;9.80;;;15.40;99.90;;;;;;5103999;28;20199;-76
2023/09/30 01:26:58;;;;;;;11.20;9.37;;;15.40;99.90;;;;;;5089310;28;20223;-76
2023/09/30 01:29:26;;;;;;;11.37;9.70;;;15.30;99.90;;;;;;5088556;28;20581;-76
2023/09/30 01:31:53;;;;;;;11.33;9.83;;;15.30;99.90;;;;;;5092148;28;20226;-76
2023/09/30 01:34:20;;;;;;;11.03;9.80;;;15.30;99.90;;;;;;5090452;28;20227;-76
2023/09/30 01:36:47;;;;;;;12.97;10.50;;;15.30;99.90;;;;;;5104451;28;20191;-76
2023/09/30 01:39:15;;;;;;;13.27;10.27;;;15.20;99.90;;;;;;5073795;28;20286;-76
2023/09/30 01:41:42;;;;;;;12.20;10.57;;;15.10;99.90;;;;;;5077826;28;20201;-76
2023/09/30 01:44:09;;;;;;;13.07;9.80;;;15.10;99.90;;;;;;5077016;28;20229;-76
2023/09/30 01:46:37;;;;;;;11.03;9.93;;;15.10;99.90;;;;;;5074231;28;20220;-76
2023/09/30 01:49:04;;;;;;;10.67;9.57;;;15.00;99.90;;;;;;5096267;28;20653;-76
2023/09/30 01:51:31;;;;;;;10.90;9.60;;;15.00;99.90;;;;;;5088127;28;20273;-76
2023/09/30 01:53:58;;;;;;;12.27;9.90;;;15.00;99.90;;;;;;5091605;28;20225;-76
2023/09/30 01:56:27;;;;;;;12.70;9.90;;;15.00;99.90;;;;;;5107947;28;20212;-76
2023/09/30 01:58:54;;;;;;;11.47;10.30;;;15.00;99.90;;;;;;5093480;28;20212;-76
2023/09/30 02:01:21;;;;;;;13.10;10.40;;;15.00;99.90;;;;;;5093522;28;20198;-76
2023/09/30 02:03:49;;;;;;;12.10;10.57;;;15.00;99.90;;;;;;5091337;28;20594;-76
2023/09/30 02:06:16;;;;;;;11.70;9.97;;;15.00;99.90;;;;;;5095791;28;20580;-76
2023/09/30 02:08:44;;;;;;;12.77;9.80;;;15.00;99.90;;;;;;5112525;28;20184;-76
2023/09/30 02:11:13;;;;;;;11.93;10.73;;;15.00;99.90;;;;;;5090159;28;20203;-76
2023/09/30 02:13:42;;;;;;;10.67;9.57;;;15.00;99.90;;;;;;5112667;28;20758;-76
2023/09/30 02:16:13;;;;;;;11.03;9.83;;;15.10;99.90;;;;;;5093103;28;20224;-76
2023/09/30 02:18:41;;;;;;;11.17;10.07;;;15.10;99.90;;;;;;5110406;28;20251;-76
2023/09/30 02:21:08;;;;;;;12.67;10.23;;;15.10;99.90;;;;;;5090371;28;20207;-76
2023/09/30 02:23:35;;;;;;;11.33;9.93;;;15.10;99.90;;;;;;5113468;28;20217;-76
2023/09/30 02:26:02;;;;;;;11.00;9.90;;;15.10;99.90;;;;;;5113128;28;20671;-76
2023/09/30 02:28:31;;;;;;;12.57;10.70;;;15.10;99.90;;;;;;5118064;28;20209;-76
2023/09/30 02:31:00;;;;;;;10.77;9.67;;;15.10;99.90;;;;;;5115834;28;20216;-76
2023/09/30 02:33:27;;;;;;;10.63;9.53;;;15.10;99.90;;;;;;5095698;28;20217;-76
2023/09/30 02:35:54;;;;;;;10.80;9.70;;;15.10;99.90;;;;;;5113346;28;20535;-76
2023/09/30 02:38:21;;;;;;;12.23;10.90;;;15.10;99.90;;;;;;5112758;28;20799;-76
2023/09/30 02:40:49;;;;;;;10.30;9.13;;;15.00;99.90;;;;;;5112412;28;20201;-76
2023/09/30 02:43:16;;;;;;;10.57;9.57;;;15.00;99.90;;;;;;5096320;28;20224;-76
2023/09/30 02:45:44;;;;;;;11.03;9.80;;;14.90;99.90;;;;;;5095455;28;20194;-76
2023/09/30 02:48:12;;;;;;;10.33;9.30;;;14.90;99.90;;;;;;5102852;28;20229;-76
2023/09/30 02:50:40;;;;;;;11.50;10.30;;;14.80;99.90;;;;;;5097677;28;20199;-76
2023/09/30 02:53:07;;;;;;;12.60;10.67;;;14.80;99.90;;;;;;5092956;28;20225;-76
2023/09/30 02:55:33;;;;;;;11.73;10.57;;;14.90;99.90;;;;;;5109669;28;20733;-78
2023/09/30 02:58:00;;;;;;;11.57;10.20;;;14.80;99.90;;;;;;5106693;28;20199;-78
2023/09/30 03:00:32;;;;;;;12.33;10.70;;;14.80;99.90;;;;;;5104979;28;20271;-76
2023/09/30 03:03:01;;;;;;;12.30;9.93;;;14.70;99.90;;;;;;5101851;28;20604;-78
2023/09/30 03:05:33;;;;;;;10.90;9.43;;;14.70;99.90;;;;;;5091294;28;20206;-78
2023/09/30 03:08:00;;;;;;;11.53;10.30;;;14.70;99.90;;;;;;5083372;28;20675;-78
2023/09/30 03:10:28;;;;;;;11.67;10.50;;;14.60;99.90;;;;;;5085498;28;20252;-77
2023/09/30 03:12:56;;;;;;;10.40;9.30;;;14.60;99.90;;;;;;5090790;28;20604;-78
2023/09/30 03:15:23;;;;;;;11.30;10.00;;;14.60;99.90;;;;;;5098693;28;20200;-77
2023/09/30 03:17:50;;;;;;;11.97;10.07;;;14.60;99.90;;;;;;5085268;28;20236;-77
2023/09/30 03:20:20;;;;;;;10.43;9.30;;;14.50;99.90;;;;;;5067986;28;20626;-75
2023/09/30 03:22:49;;;;;;;11.87;9.60;;;14.50;99.90;;;;;;5094741;28;20218;-77
2023/09/30 03:25:18;;;;;;;12.73;10.07;;;14.50;99.90;;;;;;5100491;28;20197;-77
2023/09/30 03:27:46;;;;;;;11.50;10.20;;;14.50;99.90;;;;;;5089088;28;20636;-78
2023/09/30 03:30:15;;;;;;;11.30;9.67;;;14.50;99.90;;;;;;5102652;28;20203;-76
2023/09/30 03:32:42;;;;;;;12.07;9.47;;;14.40;99.90;;;;;;5096332;28;20892;-78
2023/09/30 03:35:16;;;;;;;11.43;10.23;;;14.40;99.90;;;;;;5106729;28;20722;-80
2023/09/30 03:37:44;;;;;;;12.33;9.60;;;14.30;99.90;;;;;;5110580;28;20201;-79
2023/09/30 03:40:14;;;;;;;11.73;10.03;;;14.30;99.90;;;;;;5113897;28;20227;-77
2023/09/30 03:42:42;;;;;;;10.60;9.50;;;14.30;99.90;;;;;;5091222;28;20357;-78
2023/09/30 03:45:09;;;;;;;11.10;10.00;;;14.20;99.90;;;;;;5079134;28;20193;-78
2023/09/30 03:47:37;;;;;;;12.23;10.20;;;14.20;99.90;;;;;;5099055;28;20199;-76
2023/09/30 03:50:04;;;;;;;11.13;10.03;;;14.10;99.90;;;;;;5098282;28;20197;-77
2023/09/30 03:52:33;;;;;;;12.70;10.00;;;14.10;99.90;;;;;;5106352;28;20215;-78
2023/09/30 03:55:03;;;;;;;14.07;10.50;;;14.00;99.90;;;;;;5106934;28;20274;-76
2023/09/30 03:57:31;;;;;;;13.00;10.07;;;14.00;99.90;;;;;;5084107;28;20201;-74
2023/09/30 03:59:58;;;;;;;12.50;10.37;;;13.90;99.90;;;;;;5088628;28;20648;-74
2023/09/30 04:02:25;;;;;;;11.30;10.10;;;13.90;99.90;;;;;;5085930;28;20222;-74
2023/09/30 04:04:53;;;;;;;10.80;9.73;;;13.90;99.90;;;;;;5085400;28;20201;-74
2023/09/30 04:07:21;;;;;;;11.13;10.07;;;13.80;99.90;;;;;;5111282;28;20252;-74
2023/09/30 04:09:48;;;;;;;12.03;10.17;;;13.80;99.90;;;;;;5107819;28;20194;-74
2023/09/30 04:12:15;;;;;;;11.53;10.33;;;13.80;99.90;;;;;;5107429;28;20206;-74
2023/09/30 04:14:43;;;;;;;13.17;10.77;;;13.70;99.90;;;;;;5112329;28;20198;-74
2023/09/30 04:17:10;;;;;;;11.57;9.77;;;13.70;99.90;;;;;;5111030;28;20197;-73
2023/09/30 04:19:37;;;;;;;11.30;10.07;;;13.70;99.90;;;;;;5110704;28;20225;-73
2023/09/30 04:22:05;;;;;;;12.97;10.53;;;13.70;99.90;;;;;;5089768;28;20205;-74
2023/09/30 04:24:32;;;;;;;10.90;9.80;;;13.60;99.90;;;;;;5073140;28;20254;-73
2023/09/30 04:27:03;;;;;;;12.37;10.47;;;13.60;99.90;;;;;;5088971;28;20211;-73
2023/09/30 04:29:29;;;;;;;11.83;10.07;;;13.60;99.90;;;;;;5095161;28;20217;-73
2023/09/30 04:31:58;;;;;;;11.17;10.03;;;13.50;99.90;;;;;;5110257;28;20240;-73
2023/09/30 04:34:25;;;;;;;11.93;10.60;;;13.50;99.90;;;;;;5112380;28;20193;-73
2023/09/30 04:36:52;;;;;;;12.37;11.00;;;13.50;99.90;;;;;;5101789;28;20218;-73
2023/09/30 04:39:19;;;;;;;12.30;10.33;;;13.50;99.90;;;;;;5105776;28;20212;-73
2023/09/30 04:41:46;;;;;;;12.63;10.47;;;13.50;99.90;;;;;;5080044;28;20246;-73
2023/09/30 04:44:13;;;;;;;10.97;9.73;;;13.60;99.90;;;;;;5103849;28;20231;-73
2023/09/30 04:46:40;;;;;;;11.73;10.10;;;13.60;99.90;;;;;;5107920;28;20656;-73
2023/09/30 04:49:09;;;;;;;12.60;11.03;;;13.60;99.90;;;;;;5089716;28;20564;-73
2023/09/30 04:51:37;;;;;;;10.87;9.87;;;13.60;99.90;;;;;;5076585;28;20292;-73
2023/09/30 04:54:06;;;;;;;12.53;10.83;;;13.60;99.90;;;;;;5107806;28;20249;-73
2023/09/30 04:56:33;;;;;;;12.47;10.63;;;13.60;99.90;;;;;;5104353;28;20690;-74
2023/09/30 04:59:01;;;;;;;12.30;10.77;;;13.60;99.90;;;;;;5103980;28;20420;-73
2023/09/30 05:01:27;;;;;;;12.27;10.70;;;13.60;99.90;;;;;;5102829;28;20197;-73
2023/09/30 05:03:54;;;;;;;12.27;10.60;;;13.70;99.90;;;;;;5107835;28;20232;-73
2023/09/30 05:06:22;;;;;;;11.87;10.23;;;13.70;99.90;;;;;;5106211;28;20195;-73
2023/09/30 05:08:49;;;;;;;11.50;10.37;;;13.80;99.90;;;;;;5090561;28;20217;-73
2023/09/30 05:11:16;;;;;;;12.10;10.97;;;13.70;99.90;;;;;;5090356;28;20579;-73
2023/09/30 05:13:43;;;;;;;12.27;10.93;;;13.80;99.90;;;;;;5105563;28;20278;-73
2023/09/30 05:16:10;;;;;;;12.30;11.10;;;13.80;99.90;;;;;;5104051;28;20277;-73
2023/09/30 05:18:38;;;;;;;12.37;11.13;;;13.80;99.90;;;;;;5087706;28;20289;-73
2023/09/30 05:21:06;;;;;;;12.43;11.00;;;13.80;99.90;;;;;;5107719;28;20189;-73
2023/09/30 05:23:35;;;;;;;11.07;10.03;;;13.80;99.90;;;;;;5107193;28;20711;-73
2023/09/30 05:26:02;;;;;;;12.03;10.77;;;13.80;99.90;;;;;;5108973;28;20208;-73
2023/09/30 05:28:29;;;;;;;11.43;10.30;;;13.90;99.90;;;;;;5111722;28;20227;-73
2023/09/30 05:30:56;;;;;;;11.23;10.13;;;13.90;99.90;;;;;;5107910;28;20189;-73
2023/09/30 05:33:23;;;;;;;13.27;10.27;;;13.90;99.90;;;;;;5106354;28;20225;-73
2023/09/30 05:35:49;;;;;;;11.30;10.23;;;14.00;99.90;;;;;;5103889;28;20200;-74
2023/09/30 05:38:19;;;;;;;12.37;10.97;;;14.00;99.90;;;;;;5111029;28;20239;-74
2023/09/30 05:40:48;;;;;;;11.83;10.63;;;14.00;99.90;;;;;;5075307;28;20271;-74
2023/09/30 05:43:15;;;;;;;11.90;10.70;;;14.00;99.90;;;;;;5100992;28;20236;-74
2023/09/30 05:45:48;;;;;;;11.70;10.60;;;14.10;99.90;;;;;;5091698;28;20196;-73
2023/09/30 05:48:16;;;;;;;12.53;11.23;;;14.10;99.90;;;;;;5093151;28;20210;-78
2023/09/30 05:50:43;;;;;;;13.30;10.97;;;14.10;99.90;;;;;;5084296;28;20266;-77
2023/09/30 05:53:11;;;;;;;11.80;10.70;;;14.10;99.90;;;;;;5105868;28;20248;-78
2023/09/30 05:55:41;;;;;;;12.23;11.00;;;14.10;99.90;;;;;;5108688;28;20203;-77
2023/09/30 05:58:10;;;;;;;12.27;11.17;;;14.20;99.90;;;;;;5108429;28;20213;-79
2023/09/30 06:00:37;;;;;;;12.40;11.13;;;14.20;99.90;;;;;;5065535;28;20229;-73
2023/09/30 06:03:06;;;;;;;11.83;10.43;;;14.30;99.90;;;;;;5108606;28;20217;-73
2023/09/30 06:05:32;;;;;;;10.70;5.40;;;14.30;99.90;;;;;;5109399;28;20194;-74
2023/09/30 06:08:04;;;;;;;9.03;5.33;;;14.40;99.90;;;;;;5110091;28;20275;-73
2023/09/30 06:10:31;;;;;;;10.97;9.83;;;14.40;99.90;;;;;;5110938;28;20226;-74
2023/09/30 06:12:58;;;;;;;10.60;9.47;;;14.50;99.90;;;;;;5089699;28;20787;-73
2023/09/30 06:15:26;;;;;;;12.17;10.97;;;14.50;99.90;;;;;;5106144;28;20234;-73
2023/09/30 06:17:53;;;;;;;13.47;12.07;;;14.50;99.90;;;;;;5091840;28;20238;-73
2023/09/30 06:20:22;;;;;;;12.47;10.93;;;14.50;99.90;;;;;;5100757;28;20220;-73
2023/09/30 06:22:50;;;;;;;11.37;10.27;;;14.50;99.90;;;;;;5108158;28;20232;-73
2023/09/30 06:25:17;;;;;;;11.63;10.43;;;14.60;99.90;;;;;;5107535;28;20670;-74
2023/09/30 06:27:44;;;;;;;12.00;10.70;;;14.60;99.90;;;;;;5111114;28;20194;-73
2023/09/30 06:30:13;;;;;;;11.43;10.30;;;14.70;99.90;;;;;;5106994;28;20594;-81
2023/09/30 06:32:41;;;;;;;10.80;9.80;;;14.80;99.90;;;;;;5096670;28;20218;-81
2023/09/30 06:35:10;;;;;;;12.37;11.00;;;14.90;99.90;;;;;;5096017;28;20201;-77
2023/09/30 06:37:38;;;;;;;10.50;9.53;;;14.90;99.90;;;;;;5119975;28;20207;-77
2023/09/30 06:40:07;;;;;;;11.13;10.03;;;15.00;99.90;;;;;;5101781;28;20305;-77
2023/09/30 06:42:35;;;;;;;9.77;5.23;;;15.10;99.90;;;;;;5124201;28;20218;-76
2023/09/30 06:45:05;;;;;;;8.37;4.73;;;15.20;99.90;;;;;;5084601;28;20206;-78
2023/09/30 06:47:33;;;;;;;7.60;4.90;;;15.30;99.90;;;;;;5074736;28;20283;-73
2023/09/30 06:50:07;;;;;;;7.73;4.70;;;15.40;99.90;;;;;;5077942;28;20241;-74
2023/09/30 06:52:35;;;;;;;7.90;4.90;;;15.40;99.90;;;;;;5095513;28;20225;-73
2023/09/30 06:55:02;;;;;;;7.50;4.70;;;15.50;99.90;;;;;;5096058;28;20202;-73
2023/09/30 06:57:31;;;;;;;8.00;5.00;;;15.50;99.90;;;;;;5076411;28;20263;-73
2023/09/30 06:59:58;;;;;;;8.80;5.47;;;15.50;99.90;;;;;;5094000;28;20211;-73
2023/09/30 07:02:25;;;;;;;8.03;5.17;;;15.60;99.90;;;;;;5075250;28;20643;-74
2023/09/30 07:04:52;;;;;;;10.27;5.80;;;15.70;99.90;;;;;;5075479;28;20189;-78
2023/09/30 07:07:20;;;;;;;8.47;5.33;;;15.80;99.90;;;;;;5098154;28;20323;-77
2023/09/30 07:09:48;;;;;;;10.77;9.80;;;15.90;99.90;;;;;;5080700;28;20198;-76
2023/09/30 07:12:15;;;;;;;11.10;9.80;;;16.10;99.90;;;;;;5099495;28;20247;-77
2023/09/30 07:14:42;;;;;;;12.23;10.60;;;16.20;99.90;;;;;;5075950;28;20209;-76
2023/09/30 07:17:09;;;;;;;8.87;5.80;;;16.30;99.90;;;;;;5080570;28;20780;-76
2023/09/30 07:19:37;;;;;;;8.37;7.37;;;16.30;99.90;;;;;;5076371;28;20204;-77
2023/09/30 07:22:03;;;;;;;8.80;5.77;;;16.30;99.90;;;;;;5099088;28;20259;-76
2023/09/30 07:24:31;;;;;;;9.77;8.67;;;16.40;99.90;;;;;;5088810;28;20687;-77
2023/09/30 07:26:58;;;;;;;12.30;8.40;;;16.50;99.90;;;;;;5096894;28;20226;-76
2023/09/30 07:29:25;;;;;;;10.93;9.83;;;16.60;99.90;;;;;;5078733;28;20293;-77
2023/09/30 07:31:52;;;;;;;10.77;9.77;;;16.70;99.90;;;;;;5097067;28;20607;-77
2023/09/30 07:34:19;;;;;;;11.30;10.17;;;16.70;99.90;;;;;;5078100;28;20600;-76
2023/09/30 07:36:46;;;;;;;10.67;5.73;;;16.80;99.90;;;;;;5077403;28;20201;-76
2023/09/30 07:39:13;;;;;;;9.83;5.47;;;16.90;99.90;;;;;;5090505;28;20615;-76
2023/09/30 07:41:41;;;;;;;10.27;5.67;;;16.90;99.90;;;;;;5096676;28;20765;-76
2023/09/30 07:44:09;;;;;;;11.27;7.40;;;16.90;99.90;;;;;;5086502;28;20249;-76
2023/09/30 07:46:36;;;;;;;11.03;9.77;;;17.00;99.90;;;;;;5077142;28;20201;-77
2023/09/30 07:49:04;;;;;;;10.97;9.87;;;17.10;99.90;;;;;;5075396;28;20564;-77
2023/09/30 07:51:31;;;;;;;10.67;9.57;;;17.20;99.90;;;;;;5092201;28;20194;-78
2023/09/30 07:53:58;;;;;;;10.03;7.07;;;17.30;99.90;;;;;;5071363;28;20700;-78
2023/09/30 07:56:25;;;;;;;9.73;7.40;;;17.30;99.90;;;;;;5075443;28;20586;-80
2023/09/30 07:58:53;;;;;;;10.47;9.47;;;17.50;99.90;;;;;;5093583;28;20201;-78
2023/09/30 08:01:20;;;;;;;7.33;4.70;;;17.60;99.90;;;;;;5090257;28;20222;-76
2023/09/30 08:03:46;;;;;;;7.38;4.82;;;17.80;99.90;;;;;;5076442;28;20494;-77
2023/09/30 08:06:13;;;;;;;6.23;4.40;;;18.20;99.90;;;;;;5097377;28;20652;-73
2023/09/30 08:08:40;;;;;;;6.30;4.37;;;18.40;99.90;;;;;;5097207;28;20206;-77
2023/09/30 08:11:07;;;;;;;8.97;8.17;;;18.60;99.90;;;;;;5080333;28;20622;-77
2023/09/30 08:13:35;;;;;;;8.63;7.83;;;18.70;99.90;;;;;;5079757;22;20229;-78
2023/09/30 08:16:07;;;;;;;6.37;4.67;;;18.80;99.90;;;;;;5032721;28;20202;-78
2023/09/30 08:18:36;;;;;;;8.30;5.27;;;18.80;99.90;;;;;;5052250;28;20202;-80
2023/09/30 08:21:04;;;;;;;9.97;8.83;;;18.90;99.90;;;;;;5034762;28;20235;-79
2023/09/30 08:23:31;;;;;;;9.70;5.07;;;19.20;99.90;;;;;;5034299;28;20246;-78
2023/09/30 08:25:59;;;;;;;8.30;6.53;;;19.20;99.90;;;;;;5052033;28;20204;-83
2023/09/30 08:28:26;;;;;;;7.07;4.70;;;19.50;99.90;;;;;;5035993;28;20202;-82
2023/09/30 08:31:04;;;;;;;6.40;4.53;;;19.60;99.90;;;;;;5055894;28;20191;-82
2023/09/30 08:33:32;;;;;;;7.10;4.47;;;20.00;99.90;;;;;;5049574;28;20313;-82
2023/09/30 08:36:06;;;;;;;6.37;4.50;;;20.30;99.90;;;;;;5045653;28;20210;-81
2023/09/30 08:38:34;;;;;;;5.87;4.10;;;20.50;99.90;;;;;;5042003;28;20270;-83
2023/09/30 08:41:02;;;;;;;7.57;6.23;;;20.70;99.90;;;;;;5047517;28;20247;-82
2023/09/30 08:43:30;;;;;;;9.07;5.13;;;20.70;99.90;;;;;;5044908;28;20294;-83
2023/09/30 08:45:58;;;;;;;8.47;6.57;;;20.90;99.90;;;;;;5059953;28;20658;-81
2023/09/30 08:48:29;;;;;;;8.93;5.33;;;20.70;99.90;;;;;;5058039;28;20199;-82
2023/09/30 08:50:57;;;;;;;9.37;5.07;;;20.80;99.90;;;;;;5043967;28;20259;-82
2023/09/30 08:53:24;;;;;;;7.53;4.67;;;20.70;99.90;;;;;;5034079;28;20233;-82
2023/09/30 08:55:53;;;;;;;7.47;5.27;;;20.50;99.90;;;;;;5030293;28;20582;-81
2023/09/30 08:58:20;;;;;;;8.90;5.07;;;20.20;99.90;;;;;;5034819;28;20220;-82
2023/09/30 09:00:48;;;;;;;9.87;6.90;;;20.00;99.90;;;;;;5053690;28;20207;-81
2023/09/30 09:03:15;;;;;;;7.17;4.83;;;19.70;99.90;;;;;;5055462;28;20219;-82
2023/09/30 09:05:43;;;;;;;8.20;7.00;;;19.60;99.90;;;;;;5037150;28;20207;-82
2023/09/30 09:08:10;;;;;;;8.40;6.00;;;19.70;99.90;;;;;;5037909;28;20207;-81
2023/09/30 09:10:45;;;;;;;8.03;5.27;;;19.60;99.90;;;;;;5039297;28;20225;-80
2023/09/30 09:13:12;;;;;;;7.60;5.03;;;19.60;99.90;;;;;;5040364;28;20241;-81
2023/09/30 09:15:39;;;;;;;9.27;4.93;;;20.00;99.90;;;;;;5034711;28;20230;-84
2023/09/30 09:18:06;;;;;;;7.73;5.27;;;20.40;99.90;;;;;;5058559;28;20199;-81
2023/09/30 09:20:34;;;;;;;8.60;5.20;;;20.90;99.90;;;;;;5057870;28;20218;-81
2023/09/30 09:23:02;;;;;;;6.53;4.60;;;21.10;99.90;;;;;;5058954;28;20226;-82
2023/09/30 09:25:29;;;;;;;7.07;4.90;;;21.40;99.90;;;;;;5058414;28;20245;-83
2023/09/30 09:27:56;;;;;;;8.00;5.50;;;21.70;99.90;;;;;;5037392;28;20200;-82
2023/09/30 09:30:25;;;;;;;7.37;5.50;;;21.70;99.90;;;;;;5031761;28;20199;-84
2023/09/30 09:32:54;;;;;;;7.30;6.60;;;21.80;99.90;;;;;;5044518;28;20621;-84
2023/09/30 09:35:28;;;;;;;8.13;4.60;;;22.10;99.90;;;;;;5042736;28;20305;-85
2023/09/30 09:37:57;;;;;;;8.37;5.03;;;22.30;99.90;;;;;;5061595;28;20199;-83
2023/09/30 09:40:27;;;;;;;6.87;5.00;;;22.40;99.90;;;;;;5058415;28;20592;-82
2023/09/30 09:42:55;;;;;;;9.70;5.60;;;22.50;99.90;;;;;;5041092;28;20237;-84
2023/09/30 09:45:24;;;;;;;9.83;5.63;;;22.30;99.90;;;;;;5040592;28;20210;-85
2023/09/30 09:47:52;;;;;;;10.43;8.90;;;22.20;99.90;;;;;;5035015;28;20584;-84
2023/09/30 09:50:21;;;;;;;7.60;4.77;;;21.90;99.90;;;;;;5038126;28;20202;-84
2023/09/30 09:52:50;;;;;;;8.90;5.30;;;22.00;99.90;;;;;;5036608;28;20223;-84
2023/09/30 09:55:27;;;;;;;11.03;9.93;;;21.70;99.90;;;;;;5045846;28;20256;-87
2023/09/30 09:57:54;;;;;;;11.17;10.03;;;21.40;99.90;;;;;;5057896;28;20195;-83
2023/09/30 10:00:23;;;;;;;8.47;5.37;;;21.30;99.90;;;;;;5042706;28;20683;-83
2023/09/30 10:02:51;;;;;;;8.97;5.77;;;21.10;99.90;;;;;;5051611;28;20225;-83
2023/09/30 10:05:20;;;;;;;9.73;6.90;;;21.20;99.90;;;;;;5045205;28;20210;-82
2023/09/30 10:07:57;;;;;;;8.30;4.90;;;21.40;99.90;;;;;;5071156;28;20264;-83
2023/09/30 10:10:25;;;;;;;7.73;5.23;;;21.40;99.90;;;;;;5058942;28;20209;-83
2023/09/30 10:12:52;;;;;;;6.57;4.60;;;21.50;99.90;;;;;;5071657;28;20229;-81
2023/09/30 10:15:41;;;;;;;8.77;4.80;;;21.60;99.90;;;;;;5061375;28;20206;-82
2023/09/30 10:18:09;;;;;;;9.67;5.47;;;21.50;99.90;;;;;;5043149;28;20199;-81
2023/09/30 10:20:40;;;;;;;9.57;5.77;;;21.30;99.90;;;;;;5048510;28;20226;-84
2023/09/30 10:23:33;;;;;;;10.23;7.70;;;21.10;99.90;;;;;;5062648;28;20222;-84
2023/09/30 10:26:23;;;;;;;8.70;5.50;;;21.10;99.90;;;;;;5050107;28;20218;-84
2023/09/30 10:28:50;;;;;;;12.13;8.60;;;20.80;99.90;;;;;;5047896;28;20202;-81
2023/09/30 10:31:19;;;;;;;10.20;8.17;;;20.90;99.90;;;;;;5077258;28;20247;-85
2023/09/30 10:34:21;;;;;;;9.50;6.73;;;20.70;99.90;;;;;;5061603;28;20214;-84
2023/09/30 10:36:50;;;;;;;10.80;9.70;;;20.50;99.90;;;;;;4976516;28;20201;-84
2023/09/30 10:39:58;;;;;;;9.67;5.93;;;20.40;99.90;;;;;;4972585;28;20558;-83
2023/09/30 10:42:51;;;;;;;10.93;9.80;;;20.20;99.90;;;;;;5052431;28;20237;-83
2023/09/30 10:45:46;;;;;;;12.33;6.50;;;20.00;99.90;;;;;;5037375;28;20251;-83
2023/09/30 10:48:40;;;;;;;10.77;9.67;;;20.00;99.90;;;;;;5042604;28;20218;-83
2023/09/30 10:51:15;;;;;;;11.10;6.00;;;20.10;99.90;;;;;;5039778;28;20213;-83
2023/09/30 10:53:51;;;;;;;8.87;5.93;;;20.10;99.90;;;;;;5025010;28;20592;-83
2023/09/30 10:56:18;;;;;;;10.23;5.77;;;20.20;99.90;;;;;;5052213;28;20202;-83
2023/09/30 10:58:48;;;;;;;9.17;5.40;;;20.20;99.90;;;;;;5060782;28;20190;-83
2023/09/30 11:01:18;;;;;;;10.37;6.03;;;20.30;99.90;;;;;;5055315;28;20208;-84
2023/09/30 11:03:46;;;;;;;9.13;5.60;;;20.40;99.90;;;;;;5044108;28;20210;-83
2023/09/30 11:06:17;;;;;;;10.13;6.57;;;20.50;99.90;;;;;;5043034;28;20194;-83
2023/09/30 11:08:51;;;;;;;9.60;5.90;;;20.50;99.90;;;;;;5041887;28;20206;-82
2023/09/30 11:11:18;;;;;;;11.03;5.87;;;20.50;99.90;;;;;;5046503;28;20186;-83
2023/09/30 11:13:45;;;;;;;10.40;8.40;;;20.60;99.90;;;;;;5061119;28;20257;-83
2023/09/30 11:16:13;;;;;;;11.43;7.57;;;20.60;99.90;;;;;;5063411;28;20199;-83
2023/09/30 11:18:40;;;;;;;10.37;6.20;;;20.70;99.90;;;;;;5055859;28;20187;-83
2023/09/30 11:21:09;;;;;;;8.50;6.03;;;20.70;99.90;;;;;;5037947;28;20249;-83
2023/09/30 11:23:36;;;;;;;11.23;7.10;;;20.90;99.90;;;;;;5059276;28;20215;-83
2023/09/30 11:26:04;;;;;;;11.07;5.90;;;20.90;99.90;;;;;;5036732;28;20191;-83
2023/09/30 11:28:42;;;;;;;11.23;10.07;;;21.00;99.90;;;;;;5056244;28;20238;-83
2023/09/30 11:31:11;;;;;;;11.10;6.07;;;21.00;99.90;;;;;;5056007;28;20688;-83
2023/09/30 11:33:57;;;;;;;10.97;7.13;;;21.10;99.90;;;;;;5034415;28;20341;-83
2023/09/30 11:36:25;;;;;;;12.03;9.23;;;21.10;99.90;;;;;;5028962;28;20191;-83
2023/09/30 11:38:53;;;;;;;11.10;9.20;;;21.10;99.90;;;;;;5035586;28;20249;-83
2023/09/30 11:41:22;;;;;;;11.50;7.77;;;21.20;99.90;;;;;;5057860;28;20234;-83
2023/09/30 11:44:04;;;;;;;12.80;9.77;;;21.20;99.90;;;;;;5051557;28;20220;-83
2023/09/30 11:46:33;;;;;;;14.07;8.70;;;21.20;99.90;;;;;;5035932;28;20223;-84
2023/09/30 11:49:04;;;;;;;10.37;6.63;;;21.20;99.90;;;;;;5059926;28;20226;-83
2023/09/30 11:51:43;;;;;;;9.47;6.10;;;21.20;99.90;;;;;;5035129;28;20195;-83
2023/09/30 11:54:11;;;;;;;10.13;6.87;;;21.40;99.90;;;;;;5034679;28;20276;-83
2023/09/30 11:56:38;;;;;;;11.90;7.43;;;21.60;99.90;;;;;;5036308;28;20292;-83
2023/09/30 11:59:05;;;;;;;14.20;8.00;;;21.60;99.90;;;;;;5053931;28;20204;-85
2023/09/30 12:01:41;;;;;;;13.20;7.93;;;21.80;99.90;;;;;;5039625;28;20214;-85
2023/09/30 12:04:10;;;;;;;12.50;8.27;;;22.00;99.90;;;;;;5049925;28;20283;-80
2023/09/30 12:06:49;;;;;;;13.97;8.83;;;22.10;99.90;;;;;;5039216;28;20292;-82
2023/09/30 12:09:22;;;;;;;12.07;7.53;;;22.00;99.90;;;;;;5033338;28;20660;-83
2023/09/30 12:11:49;;;;;;;13.00;7.37;;;22.10;99.90;;;;;;5045533;28;20728;-84
2023/09/30 12:14:16;;;;;;;14.53;8.10;;;22.20;99.90;;;;;;5046289;28;20219;-84
2023/09/30 12:16:45;;;;;;;15.97;11.90;;;22.20;99.90;;;;;;5061531;28;20191;-83
2023/09/30 12:19:28;;;;;;;;;;;;;;;;;;;;;
2023/09/30 12:21:57;;;;;;;12.50;8.00;;;22.30;99.90;;;;;;5041571;28;20208;-85
2023/09/30 12:24:24;;;;;;;16.23;11.87;;;22.40;99.90;;;;;;5050794;28;20310;-80
2023/09/30 12:26:55;;;;;;;14.67;11.70;;;22.10;99.90;;;;;;5064575;28;20198;-82
2023/09/30 12:29:23;;;;;;;14.83;10.70;;;22.10;99.90;;;;;;5035341;28;20677;-85
2023/09/30 12:31:52;;;;;;;11.47;6.83;;;21.90;99.90;;;;;;5044154;28;20198;-81
2023/09/30 12:34:20;;;;;;;11.67;7.53;;;21.80;99.90;;;;;;5059747;28;20218;-81
2023/09/30 12:36:47;;;;;;;12.40;6.93;;;21.90;99.90;;;;;;5071939;28;20199;-82
2023/09/30 12:39:16;;;;;;;13.13;7.43;;;22.00;99.90;;;;;;5050505;28;20203;-83
2023/09/30 12:41:44;;;;;;;12.13;7.13;;;22.00;99.90;;;;;;5048049;28;20226;-81
2023/09/30 12:44:11;;;;;;;12.17;7.37;;;22.00;99.90;;;;;;5052513;28;20587;-81